Pflugerville's Hourly Summary for Monday, May 14, 2018
Hour Temp
(f)
RH
(%)
Solar Rad.
(MJ/m2)
Rainfall
(in)
Wind
(mph)
5/14/2018 12:00 AM 76 81 0 0 6.59
5/14/2018 1:00 AM 74 99 0 0 7.92
5/14/2018 2:00 AM 73 100 0 0 6.19
5/14/2018 3:00 AM 73 100 0 0 7.73
5/14/2018 4:00 AM 73 100 0 0 6.72
5/14/2018 5:00 AM 73 100 0 0 6.18
5/14/2018 6:00 AM 73 100 0 0 4.98
5/14/2018 7:00 AM 73 100 0.01 0 5.11
5/14/2018 8:00 AM 72 100 0.18 0 4.45
5/14/2018 9:00 AM 74 100 0.53 0 6.98
5/14/2018 10:00 AM 75 100 0.58 0 7.8
5/14/2018 11:00 AM 77 100 1.12 0 8.56
5/14/2018 12:00 PM 79 89 1.57 0 8.55
5/14/2018 1:00 PM 83 69 2.84 0 10.44
5/14/2018 2:00 PM 84 63 3 0 10.04
5/14/2018 3:00 PM 85 60 2.26 0 9.61
5/14/2018 4:00 PM 87 54 1.96 0 9.39
5/14/2018 5:00 PM 88 50 1.08 0 9.63
5/14/2018 6:00 PM 87 50 1.5 0 7.29
5/14/2018 7:00 PM 86 53 0.6 0 5.43
5/14/2018 8:00 PM 84 59 0.27 0 5.23
5/14/2018 9:00 PM 81 63 0.01 0 3.83
5/14/2018 10:00 PM 79 70 0 0 4.35
5/14/2018 11:00 PM 78 77 0 0 6.23
Data Summary 78 80 17.51 0.00 7.05